createdAt,value
2022-12-29T00:01:43.198Z,0.70
2022-12-29T00:04:15.365Z,0.63
2022-12-29T00:06:43.191Z,1.02
2022-12-29T00:09:12.511Z,0.90
2022-12-29T00:11:39.331Z,0.77
2022-12-29T00:14:26.355Z,0.93
2022-12-29T00:16:53.206Z,0.60
2022-12-29T00:19:39.219Z,0.82
2022-12-29T00:22:24.870Z,0.60
2022-12-29T00:24:54.355Z,0.65
2022-12-29T00:27:39.814Z,0.75
2022-12-29T00:30:32.876Z,0.80
2022-12-29T00:33:17.940Z,0.60
2022-12-29T00:35:48.547Z,0.65
2022-12-29T00:38:34.196Z,0.70
2022-12-29T00:41:19.928Z,0.70
2022-12-29T00:44:05.601Z,0.57
2022-12-29T00:46:33.650Z,0.77
2022-12-29T00:49:20.630Z,0.60
2022-12-29T00:51:47.498Z,0.70
2022-12-29T00:54:15.240Z,0.60
2022-12-29T00:56:42.148Z,0.63
2022-12-29T00:59:11.312Z,0.65
2022-12-29T01:01:39.212Z,0.80
2022-12-29T01:04:06.781Z,0.85
2022-12-29T01:06:34.502Z,1.00
2022-12-29T01:09:20.150Z,0.90
2022-12-29T01:11:47.926Z,0.68
2022-12-29T01:14:15.395Z,0.68
2022-12-29T01:16:42.160Z,1.05
2022-12-29T01:19:09.889Z,0.70
2022-12-29T01:21:36.821Z,1.00
2022-12-29T01:24:03.622Z,0.60
2022-12-29T01:26:30.646Z,0.90
2022-12-29T01:28:57.697Z,0.93
2022-12-29T01:31:24.648Z,0.50
2022-12-29T01:33:51.362Z,0.77
2022-12-29T01:36:20.229Z,0.70
2022-12-29T01:38:47.063Z,0.77
2022-12-29T01:41:15.718Z,0.80
2022-12-29T01:43:46.341Z,0.52
2022-12-29T01:46:46.098Z,0.73
2022-12-29T01:49:20.131Z,0.73
2022-12-29T01:51:55.197Z,0.60
2022-12-29T01:54:50.337Z,0.93
2022-12-29T01:57:26.210Z,0.60
2022-12-29T02:00:11.631Z,1.00
2022-12-29T02:02:48.727Z,0.80
2022-12-29T02:05:29.725Z,0.70
2022-12-29T02:07:56.652Z,1.13
2022-12-29T02:10:26.803Z,0.85
2022-12-29T02:12:54.591Z,0.50
2022-12-29T02:15:33.979Z,0.73
2022-12-29T02:18:16.732Z,0.77
2022-12-29T02:20:58.469Z,0.60
2022-12-29T02:23:44.251Z,0.70
2022-12-29T02:26:24.505Z,0.65
2022-12-29T02:29:12.139Z,0.60
2022-12-29T02:31:57.054Z,0.73
2022-12-29T02:34:43.137Z,0.77
2022-12-29T02:37:20.659Z,0.80
2022-12-29T02:40:08.325Z,0.60
2022-12-29T02:42:47.599Z,0.77
2022-12-29T02:45:18.527Z,0.80
2022-12-29T02:48:29.323Z,0.90
2022-12-29T02:51:03.770Z,1.10
2022-12-29T02:53:53.058Z,0.80
2022-12-29T02:56:19.937Z,1.17
2022-12-29T02:58:47.255Z,0.70
2022-12-29T03:01:32.686Z,1.08
2022-12-29T03:04:21.449Z,0.77
2022-12-29T03:07:03.151Z,0.60
2022-12-29T03:12:57.076Z,0.63
2022-12-29T03:16:03.115Z,0.80
2022-12-29T03:19:11.404Z,1.00
2022-12-29T03:22:13.421Z,0.90
2022-12-29T03:24:47.723Z,0.85
2022-12-29T03:27:19.858Z,0.65
2022-12-29T03:29:54.485Z,1.00
2022-12-29T03:32:29.308Z,0.65
2022-12-29T03:34:59.067Z,0.73
2022-12-29T03:37:31.918Z,0.77
2022-12-29T03:39:59.609Z,0.80
2022-12-29T03:42:30.153Z,0.60
2022-12-29T03:44:58.521Z,0.65
2022-12-29T03:47:26.355Z,0.57
2022-12-29T03:49:54.432Z,0.50
2022-12-29T03:52:21.284Z,0.73
2022-12-29T03:54:48.818Z,0.50
2022-12-29T03:57:15.575Z,0.73
2022-12-29T03:59:52.971Z,0.77
2022-12-29T04:02:19.937Z,0.75
2022-12-29T04:04:47.411Z,0.60
2022-12-29T04:07:14.112Z,0.38
2022-12-29T04:09:45.094Z,0.70
2022-12-29T04:12:18.295Z,1.05
2022-12-29T04:14:45.748Z,0.73
2022-12-29T04:17:13.346Z,0.65
2022-12-29T04:19:41.480Z,0.50
2022-12-29T04:22:10.313Z,0.55
2022-12-29T04:24:37.393Z,0.70
2022-12-29T04:27:04.578Z,0.75
2022-12-29T04:29:49.965Z,1.05
2022-12-29T04:32:43.781Z,0.50
2022-12-29T04:35:10.918Z,0.93
2022-12-29T04:37:37.652Z,0.60
2022-12-29T04:40:04.888Z,0.80
2022-12-29T04:42:31.724Z,0.47
2022-12-29T04:44:59.879Z,0.35
2022-12-29T04:47:44.721Z,0.77
2022-12-29T04:50:44.110Z,0.45
2022-12-29T04:53:17.847Z,0.57
2022-12-29T04:55:50.251Z,0.90
2022-12-29T05:03:17.101Z,0.55
2022-12-29T05:05:46.425Z,0.45
2022-12-29T05:08:13.330Z,0.55
2022-12-29T05:10:46.442Z,0.90
2022-12-29T05:13:14.006Z,0.70
2022-12-29T05:15:46.653Z,0.50
2022-12-29T05:18:13.767Z,0.82
2022-12-29T05:20:40.693Z,0.40
2022-12-29T05:23:08.211Z,0.40
2022-12-29T05:25:35.334Z,0.70
2022-12-29T05:28:28.312Z,0.50
2022-12-29T05:31:04.583Z,0.63
2022-12-29T05:33:32.268Z,0.65
2022-12-29T05:36:05.979Z,0.50
2022-12-29T05:38:33.585Z,0.60
2022-12-29T05:41:00.817Z,0.60
2022-12-29T05:44:00.024Z,0.60
2022-12-29T05:46:32.855Z,0.70
2022-12-29T05:49:19.206Z,0.70
2022-12-29T05:52:08.895Z,0.95
2022-12-29T05:54:36.041Z,0.70
2022-12-29T05:57:08.562Z,0.90
2022-12-29T05:59:35.531Z,0.50
2022-12-29T06:02:03.186Z,1.13
2022-12-29T06:04:30.413Z,0.80
2022-12-29T06:06:57.415Z,0.95
2022-12-29T06:09:34.639Z,0.63
2022-12-29T06:12:02.507Z,0.95
2022-12-29T06:14:30.114Z,0.90
2022-12-29T06:16:58.973Z,0.70
2022-12-29T06:19:25.830Z,0.73
2022-12-29T06:21:53.683Z,0.55
2022-12-29T06:24:21.492Z,0.50
2022-12-29T06:26:49.476Z,1.00
2022-12-29T06:29:18.140Z,0.65
2022-12-29T06:31:50.028Z,0.93
2022-12-29T06:34:17.760Z,0.60
2022-12-29T06:36:44.531Z,0.73
2022-12-29T06:39:12.064Z,0.70
2022-12-29T06:41:39.023Z,0.80
2022-12-29T06:44:28.933Z,0.70
2022-12-29T06:47:00.824Z,0.90
2022-12-29T06:49:27.664Z,0.90
2022-12-29T06:51:54.331Z,0.80
2022-12-29T06:54:21.341Z,0.60
2022-12-29T06:56:48.050Z,0.90
2022-12-29T06:59:14.729Z,0.60
2022-12-29T07:01:41.531Z,0.57
2022-12-29T07:04:08.341Z,0.60
2022-12-29T07:06:35.036Z,0.77
2022-12-29T07:09:01.759Z,0.55
2022-12-29T07:11:28.566Z,0.80
2022-12-29T07:13:55.446Z,0.70
2022-12-29T07:16:22.538Z,0.82
2022-12-29T07:18:49.211Z,0.75
2022-12-29T07:21:15.878Z,0.95
2022-12-29T07:23:42.793Z,0.82
2022-12-29T07:26:13.618Z,0.82
2022-12-29T07:28:42.689Z,0.60
2022-12-29T07:31:16.485Z,0.90
2022-12-29T07:33:44.346Z,1.00
2022-12-29T07:36:12.721Z,0.90
2022-12-29T07:38:39.702Z,1.02
2022-12-29T07:41:06.398Z,0.90
2022-12-29T07:43:33.138Z,0.63
2022-12-29T07:46:56.514Z,0.77
2022-12-29T07:49:06.539Z,0.88
2022-12-29T07:51:33.284Z,0.80
2022-12-29T07:54:01.638Z,0.95
2022-12-29T07:56:28.740Z,0.65
2022-12-29T07:58:55.513Z,0.80
2022-12-29T08:01:24.315Z,0.85
2022-12-29T08:03:56.919Z,0.80
2022-12-29T08:06:24.135Z,1.10
2022-12-29T08:08:50.895Z,0.80
2022-12-29T08:11:17.675Z,0.80
2022-12-29T08:13:44.321Z,0.60
2022-12-29T08:16:11.027Z,0.68
2022-12-29T08:18:37.815Z,0.90
2022-12-29T08:21:05.707Z,1.02
2022-12-29T08:23:32.843Z,0.77
2022-12-29T08:26:01.305Z,1.13
2022-12-29T08:28:28.443Z,0.70
2022-12-29T08:30:58.165Z,0.90
2022-12-29T08:33:25.131Z,0.68
2022-12-29T08:35:51.848Z,1.02
2022-12-29T08:38:18.895Z,0.90
2022-12-29T08:40:45.602Z,0.68
2022-12-29T08:43:13.726Z,1.05
2022-12-29T08:45:44.025Z,0.70
2022-12-29T08:48:10.774Z,0.85
2022-12-29T08:50:37.682Z,0.68
2022-12-29T08:53:04.401Z,0.70
2022-12-29T08:55:31.085Z,0.63
2022-12-29T08:57:57.783Z,0.90
2022-12-29T09:00:24.743Z,0.68
2022-12-29T09:02:52.239Z,0.50
2022-12-29T09:05:19.015Z,0.63
2022-12-29T09:07:45.915Z,0.70
2022-12-29T09:10:12.756Z,0.82
2022-12-29T09:12:39.491Z,0.82
2022-12-29T09:15:07.089Z,0.88
2022-12-29T09:17:46.269Z,0.90
2022-12-29T09:20:15.208Z,0.73
2022-12-29T09:22:42.537Z,0.73
2022-12-29T09:25:10.087Z,0.70
2022-12-29T09:27:38.021Z,1.00
2022-12-29T09:30:07.376Z,0.70
2022-12-29T09:32:39.131Z,0.70
2022-12-29T09:35:08.895Z,0.65
2022-12-29T09:37:35.606Z,0.90
2022-12-29T09:40:02.565Z,0.60
2022-12-29T09:43:00.032Z,0.52
2022-12-29T09:45:56.601Z,0.75
2022-12-29T09:48:30.296Z,0.65
2022-12-29T09:51:02.432Z,0.98
2022-12-29T09:53:52.947Z,0.90
2022-12-29T09:56:22.856Z,0.82
2022-12-29T09:59:01.315Z,0.93
2022-12-29T10:02:26.931Z,0.70
2022-12-29T10:04:53.830Z,1.10
2022-12-29T10:07:39.174Z,0.70
2022-12-29T10:10:35.317Z,0.50
2022-12-29T10:13:15.807Z,1.00
2022-12-29T10:15:51.329Z,0.70
2022-12-29T10:18:42.644Z,0.88
2022-12-29T10:21:34.171Z,0.77
2022-12-29T10:24:05.089Z,1.33
2022-12-29T10:26:38.219Z,0.83
2022-12-29T10:29:10.682Z,0.70
2022-12-29T10:31:42.671Z,0.70
2022-12-29T10:34:28.672Z,1.10
2022-12-29T10:37:01.086Z,0.85
2022-12-29T10:39:36.592Z,0.93
2022-12-29T10:42:19.995Z,1.00
2022-12-29T10:44:46.751Z,0.63
2022-12-29T10:47:19.168Z,0.70
2022-12-29T10:49:48.505Z,0.70
2022-12-29T10:52:18.140Z,0.55
2022-12-29T10:54:44.841Z,0.50
2022-12-29T10:57:34.246Z,0.52
2022-12-29T11:00:01.115Z,0.47
2022-12-29T11:02:54.313Z,0.50
2022-12-29T11:05:37.018Z,0.75
2022-12-29T11:08:10.317Z,0.70
2022-12-29T11:10:44.782Z,0.60
2022-12-29T11:13:17.464Z,0.50
2022-12-29T11:15:47.432Z,0.60
2022-12-29T11:18:34.359Z,0.60
2022-12-29T11:21:03.979Z,0.57
2022-12-29T11:23:36.740Z,0.70
2022-12-29T11:26:13.465Z,0.68
2022-12-29T11:28:42.121Z,0.40
2022-12-29T11:31:10.308Z,0.30
2022-12-29T11:33:39.259Z,0.50
2022-12-29T11:36:19.981Z,0.70
2022-12-29T11:38:50.995Z,0.90
2022-12-29T11:41:32.314Z,0.90
2022-12-29T11:44:02.942Z,0.70
2022-12-29T11:46:34.625Z,0.60
2022-12-29T11:49:02.426Z,0.90
2022-12-29T11:51:39.577Z,0.70
2022-12-29T11:54:06.919Z,0.70
2022-12-29T11:56:43.878Z,0.52
2022-12-29T11:59:30.632Z,0.70
2022-12-29T12:01:59.889Z,0.88
2022-12-29T12:04:33.481Z,0.70
2022-12-29T12:07:14.697Z,0.88
2022-12-29T12:09:59.028Z,0.77
2022-12-29T12:12:48.184Z,0.60
2022-12-29T12:15:25.643Z,0.63
2022-12-29T12:18:04.676Z,0.73
2022-12-29T12:20:49.785Z,0.85
2022-12-29T12:23:39.936Z,0.88
2022-12-29T12:26:12.488Z,0.50
2022-12-29T12:28:49.459Z,0.55
2022-12-29T12:31:48.298Z,0.77
2022-12-29T12:34:30.087Z,0.50
2022-12-29T12:39:53.819Z,0.50
2022-12-29T12:42:31.988Z,0.50
2022-12-29T12:45:35.981Z,0.47
2022-12-29T12:48:27.525Z,0.63
2022-12-29T12:51:01.871Z,0.60
2022-12-29T12:53:45.207Z,0.40
2022-12-29T12:56:51.208Z,0.50
2022-12-29T12:59:42.111Z,0.55
2022-12-29T13:02:39.909Z,0.73
2022-12-29T13:05:39.514Z,0.50
2022-12-29T13:08:24.829Z,0.43
2022-12-29T13:11:02.265Z,0.63
2022-12-29T13:13:39.972Z,0.30
2022-12-29T13:16:33.780Z,0.50
2022-12-29T13:19:11.271Z,0.50
2022-12-29T13:22:20.088Z,0.40
2022-12-29T13:24:59.087Z,0.30
2022-12-29T13:27:45.917Z,0.32
2022-12-29T13:30:18.297Z,0.30
2022-12-29T13:33:21.861Z,0.30
2022-12-29T13:36:13.563Z,0.30
2022-12-29T13:39:18.980Z,0.30
2022-12-29T13:41:53.851Z,0.60
2022-12-29T13:44:46.109Z,0.30
2022-12-29T13:47:24.588Z,0.50
2022-12-29T13:49:52.811Z,0.40
2022-12-29T13:52:33.266Z,0.30
2022-12-29T13:55:37.936Z,0.50
2022-12-29T13:58:40.038Z,0.38
2022-12-29T14:01:19.074Z,0.38
2022-12-29T14:03:54.806Z,0.57
2022-12-29T14:06:25.673Z,0.52
2022-12-29T14:08:57.278Z,0.57
2022-12-29T14:13:56.780Z,0.47
2022-12-29T14:16:33.421Z,0.30
2022-12-29T14:19:21.786Z,0.60
2022-12-29T14:21:58.810Z,0.35
2022-12-29T14:24:28.306Z,0.57
2022-12-29T14:26:55.054Z,0.43
2022-12-29T14:29:24.486Z,0.40
2022-12-29T14:31:52.379Z,0.30
2022-12-29T14:34:19.068Z,0.30
2022-12-29T14:37:03.015Z,0.40
2022-12-29T14:39:35.132Z,0.50
2022-12-29T14:42:09.453Z,0.50
2022-12-29T14:44:54.235Z,0.22
2022-12-29T14:47:32.181Z,0.40
2022-12-29T14:50:07.210Z,0.38
2022-12-29T14:52:42.202Z,0.30
2022-12-29T14:55:17.742Z,0.40
2022-12-29T14:57:49.597Z,0.43
2022-12-29T15:00:27.325Z,0.20
2022-12-29T15:03:13.477Z,0.30
2022-12-29T15:05:51.309Z,0.50
2022-12-29T15:08:23.889Z,0.80
2022-12-29T15:11:01.697Z,0.60
2022-12-29T15:13:37.812Z,0.75
2022-12-29T15:16:05.640Z,0.30
2022-12-29T15:18:34.368Z,0.60
2022-12-29T15:21:06.038Z,0.50
2022-12-29T15:26:07.260Z,0.60
2022-12-29T15:28:47.836Z,0.50
2022-12-29T15:31:29.970Z,0.45
2022-12-29T15:34:13.555Z,0.52
2022-12-29T15:36:42.278Z,0.73
2022-12-29T15:39:27.899Z,0.45
2022-12-29T15:42:11.459Z,0.50
2022-12-29T15:44:44.085Z,0.50
2022-12-29T15:47:23.164Z,0.60
2022-12-29T15:49:52.992Z,0.40
2022-12-29T15:52:24.246Z,0.70
2022-12-29T15:54:53.637Z,0.68
2022-12-29T15:57:26.641Z,0.30
2022-12-29T15:59:54.852Z,0.47
2022-12-29T16:02:24.017Z,0.60
2022-12-29T16:07:41.916Z,0.50
2022-12-29T16:10:41.088Z,0.43
2022-12-29T16:13:28.233Z,0.77
2022-12-29T16:16:09.847Z,0.60
2022-12-29T16:18:39.225Z,0.68
2022-12-29T16:21:15.121Z,0.98
2022-12-29T16:23:47.803Z,0.80
2022-12-29T16:26:18.934Z,0.98
2022-12-29T16:28:50.908Z,0.60
2022-12-29T16:31:22.434Z,0.60
2022-12-29T16:36:53.824Z,0.82
2022-12-29T16:39:42.904Z,0.68
2022-12-29T16:42:36.509Z,0.73
2022-12-29T16:45:22.392Z,0.63
2022-12-29T16:48:14.685Z,0.90
2022-12-29T16:50:43.816Z,0.85
2022-12-29T16:53:25.305Z,0.80
2022-12-29T16:55:54.181Z,0.55
2022-12-29T16:58:24.388Z,0.70
2022-12-29T17:00:57.125Z,0.88
2022-12-29T17:03:35.149Z,1.13
2022-12-29T17:06:01.995Z,1.00
2022-12-29T17:08:28.787Z,1.08
2022-12-29T17:11:16.392Z,0.95
2022-12-29T17:13:43.190Z,1.00
2022-12-29T17:16:12.726Z,0.90
2022-12-29T17:18:39.718Z,1.60
2022-12-29T17:21:06.622Z,0.68
2022-12-29T17:23:34.696Z,0.85
2022-12-29T17:26:02.294Z,0.88
2022-12-29T17:28:32.272Z,1.25
2022-12-29T17:31:05.740Z,1.10
2022-12-29T17:33:38.102Z,1.10
2022-12-29T17:36:07.249Z,0.85
2022-12-29T17:38:37.775Z,0.82
2022-12-29T17:41:04.780Z,1.65
2022-12-29T17:43:36.687Z,1.13
2022-12-29T17:46:08.446Z,1.48
2022-12-29T17:48:35.473Z,1.73
2022-12-29T17:51:02.235Z,1.35
2022-12-29T17:53:32.147Z,0.90
2022-12-29T17:55:58.956Z,1.02
2022-12-29T17:58:28.007Z,0.88
2022-12-29T18:00:59.574Z,1.08
2022-12-29T18:05:55.741Z,1.40
2022-12-29T18:08:22.621Z,1.30
2022-12-29T18:10:51.999Z,1.20
2022-12-29T18:13:25.812Z,1.23
2022-12-29T18:15:54.117Z,1.13
2022-12-29T18:18:23.398Z,1.00
2022-12-29T18:20:52.461Z,1.50
2022-12-29T18:23:22.456Z,1.30
2022-12-29T18:26:12.523Z,1.83
2022-12-29T18:28:44.694Z,1.77
2022-12-29T18:31:26.195Z,1.48
2022-12-29T18:33:58.288Z,1.63
2022-12-29T18:36:33.545Z,1.17
2022-12-29T18:39:01.358Z,1.40
2022-12-29T18:41:38.936Z,1.00
2022-12-29T18:44:09.421Z,1.30
2022-12-29T18:46:38.591Z,1.20
2022-12-29T18:49:09.666Z,1.33
2022-12-29T18:51:39.407Z,1.30
2022-12-29T18:54:06.147Z,1.25
2022-12-29T18:56:33.012Z,1.42
2022-12-29T18:58:59.667Z,0.90
2022-12-29T19:01:28.106Z,1.63
2022-12-29T19:03:55.218Z,0.98
2022-12-29T19:06:23.262Z,1.00
2022-12-29T19:08:52.582Z,0.63
2022-12-29T19:11:22.438Z,1.02
2022-12-29T19:13:49.118Z,1.38
2022-12-29T19:16:21.169Z,1.33
2022-12-29T19:19:03.780Z,1.00
2022-12-29T19:21:34.973Z,0.95
2022-12-29T19:24:01.616Z,0.93
2022-12-29T19:26:31.551Z,0.70
2022-12-29T19:28:59.602Z,0.70
2022-12-29T19:31:26.563Z,0.80
2022-12-29T19:33:54.254Z,0.50
2022-12-29T19:36:23.032Z,0.70
2022-12-29T19:38:49.952Z,0.75
2022-12-29T19:41:16.753Z,0.65
2022-12-29T19:43:43.563Z,0.88
2022-12-29T19:46:13.646Z,0.80
2022-12-29T19:48:40.854Z,0.80
2022-12-29T19:51:11.162Z,0.73
2022-12-29T19:53:38.126Z,0.50
2022-12-29T19:56:07.106Z,1.10
2022-12-29T19:58:35.446Z,0.70
2022-12-29T20:01:10.756Z,0.88
2022-12-29T20:03:38.641Z,1.05
2022-12-29T20:06:07.109Z,0.65
2022-12-29T20:08:34.918Z,0.80
2022-12-29T20:11:12.022Z,0.80
2022-12-29T20:13:39.528Z,0.95
2022-12-29T20:16:08.659Z,1.00
2022-12-29T20:18:36.207Z,0.55
2022-12-29T20:21:04.245Z,1.23
2022-12-29T20:23:32.243Z,0.63
2022-12-29T20:26:01.454Z,0.70
2022-12-29T20:28:28.927Z,0.63
2022-12-29T20:31:02.904Z,0.63
2022-12-29T20:33:32.616Z,0.82
2022-12-29T20:36:11.644Z,0.57
2022-12-29T20:38:39.331Z,0.60
2022-12-29T20:41:06.356Z,0.60
2022-12-29T20:43:33.201Z,0.50
2022-12-29T20:46:00.283Z,0.50
2022-12-29T20:48:27.396Z,0.45
2022-12-29T20:50:59.251Z,0.30
2022-12-29T20:53:30.747Z,0.70
2022-12-29T20:56:04.578Z,0.43
2022-12-29T20:58:31.706Z,0.40
2022-12-29T21:01:06.824Z,0.30
2022-12-29T21:03:34.457Z,0.35
2022-12-29T21:06:01.738Z,0.70
2022-12-29T21:08:30.429Z,0.50
2022-12-29T21:10:58.712Z,0.70
2022-12-29T21:13:26.132Z,0.50
2022-12-29T21:16:05.470Z,0.60
2022-12-29T21:18:33.019Z,0.60
2022-12-29T21:21:06.012Z,0.35
2022-12-29T21:23:33.054Z,0.60
2022-12-29T21:26:02.987Z,0.60
2022-12-29T21:28:29.754Z,0.60
2022-12-29T21:30:56.473Z,0.82
2022-12-29T21:33:23.148Z,0.52
2022-12-29T21:35:49.875Z,0.70
2022-12-29T21:38:16.547Z,0.30
2022-12-29T21:40:43.620Z,0.57
2022-12-29T21:43:11.733Z,0.30
2022-12-29T21:45:38.521Z,0.50
2022-12-29T21:48:21.290Z,0.52
2022-12-29T21:51:08.776Z,0.50
2022-12-29T21:53:38.159Z,0.52
2022-12-29T21:56:06.221Z,0.30
2022-12-29T21:58:51.738Z,0.38
2022-12-29T22:01:37.617Z,0.60
2022-12-29T22:04:23.102Z,0.55
2022-12-29T22:07:08.575Z,1.13
2022-12-29T22:09:54.007Z,0.55
2022-12-29T22:12:39.585Z,0.60
2022-12-29T22:15:06.921Z,0.50
2022-12-29T22:17:37.503Z,0.38
2022-12-29T22:20:05.576Z,0.70
2022-12-29T22:22:32.294Z,0.40
2022-12-29T22:24:58.993Z,0.60
2022-12-29T22:27:25.705Z,0.47
2022-12-29T22:29:52.387Z,0.90
2022-12-29T22:32:19.038Z,0.30
2022-12-29T22:34:47.920Z,0.50
2022-12-29T22:37:15.823Z,0.65
2022-12-29T22:39:42.736Z,0.52
2022-12-29T22:42:09.921Z,0.40
2022-12-29T22:44:36.640Z,0.70
2022-12-29T22:47:03.566Z,0.47
2022-12-29T22:49:30.288Z,0.30
2022-12-29T22:51:57.075Z,0.63
2022-12-29T22:54:23.895Z,0.50
2022-12-29T22:56:50.896Z,0.63
2022-12-29T22:59:17.752Z,0.45
2022-12-29T23:01:45.172Z,0.50
2022-12-29T23:04:59.222Z,0.40
2022-12-29T23:06:59.227Z,0.50
2022-12-29T23:09:26.018Z,0.57
2022-12-29T23:11:53.355Z,0.50
2022-12-29T23:14:23.106Z,0.45
2022-12-29T23:16:49.958Z,0.70
2022-12-29T23:19:16.689Z,0.40
2022-12-29T23:21:43.643Z,0.30
2022-12-29T23:24:14.264Z,0.47
2022-12-29T23:26:43.970Z,0.38
2022-12-29T23:29:13.904Z,0.32
2022-12-29T23:31:42.269Z,0.40
2022-12-29T23:34:11.496Z,0.47
2022-12-29T23:36:38.861Z,0.40
2022-12-29T23:39:06.483Z,0.38
2022-12-29T23:41:33.211Z,0.60
2022-12-29T23:44:01.121Z,0.38
2022-12-29T23:46:29.729Z,0.40
2022-12-29T23:48:57.040Z,0.80
2022-12-29T23:51:23.963Z,0.43
2022-12-29T23:53:50.687Z,0.63
2022-12-29T23:56:21.009Z,0.50
2022-12-29T23:58:48.000Z,0.52
